アダック島 の空港の天気 - METARとTAF

アダック空港 ( PADK / ADK ) - アメリカ アラスカ州アダック島
飛行場実況気象(Metar)
観測時間04/26 02:56 AKDT (04/26 10:56 UTC)
風向・風速西 11m/s
視程10km以上
天気現象
少しの雲 雲底高度 3350m
気温3.3℃
湿度73%
気圧1023.2hPa
METARPADK 261056Z AUTO 28021KT 10SM FEW110 03/M01 A3022 RMK AO2 PK WND 28026/1037 SLP232 T00331011
過去の天気等 Google飛行場航空写真 Wunderground天気予報

過去48時間のMETAR

飛行場予報(TAF)
データがありません